Terminal Aerodrome Forecast
Issued by NWS Spokane, WA

Home | Current Version | Previous Version | Text Only | Print | Product List | Glossary On
Versions: 1 2 3 4 5 6 7 8 9 10 11 12 13 14 15 16 17 18 19 20 21 22 23 24 25 26 27 28 29 30 31 32 33 34 35 36 37 38 39 40 41 42 43
000
FTUS46 KOTX 291132
TAFGEG
TAF
KGEG 291132Z 2912/3012 04007KT 1/4SM FG VV001
     FM291900 05004KT 1SM BR OVC005
     FM292100 04004KT 5SM BR SCT003 BKN012
     FM300100 02004KT 5SM BR SCT008
     FM300600 04005KT 1/2SM FG VV002=

USA.gov is the U.S. government's official web portal to all federal, state and local government web resources and services.